Time;durP1;ratioP1;P1;durP2;ratioP2;P2;SDS_P1;SDS_P2;PMS_P1;PMS_P2;Temp;Humidity;BMP_temperature;BMP_pressure;BME280_temperature;BME280_humidity;BME280_pressure;Samples;Min_cycle;Max_cycle;Signal;HPM_P1;HPM_P2
2021/12/20 00:01:37;;;;;;;10.90;2.30;;;7.80;99.90;;;;;;5015415;28;20040;-86
2021/12/20 00:04:03;;;;;;;10.40;2.53;;;7.90;99.90;;;;;;4999162;28;20534;-86
2021/12/20 00:06:28;;;;;;;10.10;2.10;;;7.80;99.90;;;;;;5015545;28;20065;-86
2021/12/20 00:08:54;;;;;;;12.60;2.40;;;7.80;99.90;;;;;;4998944;28;20099;-86
2021/12/20 00:11:20;;;;;;;12.33;2.70;;;7.90;99.90;;;;;;5033316;28;20040;-87
2021/12/20 00:13:45;;;;;;;11.87;2.83;;;7.90;99.90;;;;;;5015573;28;20039;-86
2021/12/20 00:16:11;;;;;;;10.90;2.63;;;7.90;99.90;;;;;;5015531;28;20048;-86
2021/12/20 00:18:37;;;;;;;11.07;2.03;;;7.90;99.90;;;;;;4998572;28;20030;-86
2021/12/20 00:21:03;;;;;;;9.27;2.43;;;7.90;99.90;;;;;;4998996;28;20029;-87
2021/12/20 00:23:29;;;;;;;7.47;1.67;;;7.90;99.90;;;;;;4998689;28;20392;-86
2021/12/20 00:25:55;;;;;;;14.53;2.20;;;7.90;99.90;;;;;;4998569;28;20041;-87
2021/12/20 00:28:21;;;;;;;13.47;2.20;;;7.90;99.90;;;;;;5014981;28;20037;-86
2021/12/20 00:30:47;;;;;;;17.00;2.20;;;7.90;99.90;;;;;;4998473;28;20036;-86
2021/12/20 00:33:15;;;;;;;11.40;2.10;;;7.90;99.90;;;;;;4998660;28;20025;-86
2021/12/20 00:35:41;;;;;;;19.00;2.17;;;7.90;99.90;;;;;;4998875;28;20044;-86
2021/12/20 00:40:51;;;;;;;11.13;2.13;;;8.00;99.90;;;;;;5014649;28;20029;-87
2021/12/20 00:43:17;;;;;;;11.33;2.03;;;7.90;99.90;;;;;;4998587;28;20036;-86
2021/12/20 00:45:43;;;;;;;10.80;2.40;;;8.00;99.90;;;;;;4998144;28;20041;-87
2021/12/20 00:48:09;;;;;;;14.50;2.77;;;8.00;99.90;;;;;;4998057;28;20087;-87
2021/12/20 00:50:36;;;;;;;10.87;2.37;;;8.00;99.90;;;;;;5014658;28;20029;-87
2021/12/20 00:53:02;;;;;;;12.80;2.63;;;8.00;99.90;;;;;;4998853;28;20033;-87
2021/12/20 00:55:28;;;;;;;10.97;2.40;;;7.90;99.90;;;;;;4999150;28;20033;-87
2021/12/20 00:57:57;;;;;;;11.10;1.80;;;7.90;99.90;;;;;;5002102;28;20045;-87
2021/12/20 01:00:25;;;;;;;11.68;2.03;;;7.90;99.90;;;;;;5002952;28;20060;-87
2021/12/20 01:02:52;;;;;;;7.47;2.00;;;7.90;99.90;;;;;;5017267;28;20022;-86
2021/12/20 01:05:18;;;;;;;9.50;2.33;;;7.90;99.90;;;;;;5017272;28;20056;-87
2021/12/20 01:07:44;;;;;;;14.90;2.20;;;7.80;99.90;;;;;;5015647;28;20502;-86
2021/12/20 01:10:12;;;;;;;13.97;2.43;;;7.90;99.90;;;;;;4998517;28;20033;-87
2021/12/20 01:12:48;;;;;;;15.63;2.03;;;7.90;99.90;;;;;;4998254;28;20038;-87
2021/12/20 01:15:21;;;;;;;15.20;2.93;;;7.90;99.90;;;;;;4998330;28;20130;-86
2021/12/20 01:17:48;;;;;;;11.53;2.50;;;7.90;99.90;;;;;;4997865;28;20119;-87
2021/12/20 01:20:14;;;;;;;15.53;3.00;;;7.90;99.90;;;;;;4998294;28;20048;-87
2021/12/20 01:22:45;;;;;;;11.60;2.37;;;7.90;99.90;;;;;;4998107;28;20029;-86
2021/12/20 01:25:11;;;;;;;16.27;2.40;;;7.90;99.90;;;;;;4998149;28;20033;-86
2021/12/20 01:27:37;;;;;;;15.10;2.60;;;7.90;99.90;;;;;;5014180;28;20030;-87
2021/12/20 01:30:06;;;;;;;15.13;2.60;;;7.90;99.90;;;;;;4998297;28;20072;-86
2021/12/20 01:32:32;;;;;;;11.20;2.30;;;7.90;99.90;;;;;;5014792;28;20112;-86
2021/12/20 01:34:58;;;;;;;18.10;2.53;;;7.90;99.90;;;;;;4997920;28;22453;-87
2021/12/20 01:37:24;;;;;;;13.13;2.47;;;7.90;99.90;;;;;;5014251;28;20400;-86
2021/12/20 01:39:50;;;;;;;17.00;2.73;;;7.90;99.90;;;;;;5014002;28;20029;-87
2021/12/20 01:42:20;;;;;;;11.67;2.17;;;7.90;99.90;;;;;;4999751;28;20472;-87
2021/12/20 01:44:48;;;;;;;12.17;2.50;;;7.90;99.90;;;;;;5002119;28;20075;-86
2021/12/20 01:47:14;;;;;;;10.80;2.70;;;7.80;99.90;;;;;;5001819;28;20033;-86
2021/12/20 01:49:55;;;;;;;13.30;2.33;;;7.80;99.90;;;;;;5001722;28;20128;-86
2021/12/20 01:52:24;;;;;;;12.87;2.63;;;7.90;99.90;;;;;;5018040;28;20029;-86
2021/12/20 01:54:50;;;;;;;17.33;2.47;;;7.90;99.90;;;;;;5018372;28;20061;-87
2021/12/20 01:57:16;;;;;;;15.50;2.90;;;7.80;99.90;;;;;;5001857;28;20111;-87
2021/12/20 01:59:42;;;;;;;15.33;2.67;;;7.80;99.90;;;;;;5001537;28;20033;-87
2021/12/20 02:02:09;;;;;;;18.13;2.60;;;7.80;99.90;;;;;;5001568;28;20036;-86
2021/12/20 02:04:45;;;;;;;16.43;3.63;;;7.80;99.90;;;;;;5002043;28;20033;-87
2021/12/20 02:07:30;;;;;;;24.33;3.43;;;7.80;99.90;;;;;;5017716;28;20026;-87
2021/12/20 02:09:56;;;;;;;15.30;3.47;;;7.80;99.90;;;;;;5018254;28;20464;-86
2021/12/20 02:12:22;;;;;;;16.23;2.90;;;7.70;99.90;;;;;;5001608;28;20441;-86
2021/12/20 02:14:48;;;;;;;17.60;2.90;;;7.80;99.90;;;;;;5001503;28;20061;-86
2021/12/20 02:17:14;;;;;;;18.57;2.70;;;7.70;99.90;;;;;;5001662;28;20021;-86
2021/12/20 02:19:39;;;;;;;14.53;2.70;;;7.80;99.90;;;;;;5017216;28;20389;-86
2021/12/20 02:22:06;;;;;;;15.53;2.73;;;7.70;99.90;;;;;;5017382;28;20025;-86
2021/12/20 02:24:32;;;;;;;18.07;2.37;;;7.80;99.90;;;;;;5000931;28;20041;-86
2021/12/20 02:26:58;;;;;;;17.20;3.30;;;7.70;99.90;;;;;;5000961;28;20424;-86
2021/12/20 02:29:40;;;;;;;16.63;2.60;;;7.70;99.90;;;;;;5001204;28;20095;-89
2021/12/20 02:37:34;;;;;;;18.77;3.53;;;7.90;99.90;;;;;;5034742;28;20017;-88
2021/12/20 02:40:00;;;;;;;15.80;2.77;;;7.80;99.90;;;;;;5000660;28;20025;-88
2021/12/20 02:42:32;;;;;;;20.33;3.00;;;7.80;99.90;;;;;;5000459;28;20033;-88
2021/12/20 02:45:12;;;;;;;15.17;2.87;;;7.80;99.90;;;;;;5000778;28;20033;-87
2021/12/20 02:47:43;;;;;;;18.13;3.07;;;7.80;99.90;;;;;;5000306;28;20030;-87
2021/12/20 02:50:09;;;;;;;14.53;2.60;;;7.70;99.90;;;;;;5000494;28;20057;-87
2021/12/20 02:52:35;;;;;;;12.93;2.43;;;7.80;99.90;;;;;;5000488;28;20033;-88
2021/12/20 02:55:02;;;;;;;16.90;2.77;;;7.80;99.90;;;;;;5016567;28;20037;-87
2021/12/20 02:57:28;;;;;;;15.83;2.43;;;7.80;99.90;;;;;;5000067;28;20026;-88
2021/12/20 02:59:54;;;;;;;14.77;3.60;;;7.80;99.90;;;;;;5000266;28;20108;-88
2021/12/20 03:02:22;;;;;;;16.53;2.30;;;7.70;99.90;;;;;;5034176;28;20159;-87
2021/12/20 03:04:49;;;;;;;12.93;2.40;;;7.80;99.90;;;;;;5000207;28;20053;-88
2021/12/20 03:07:21;;;;;;;15.47;2.27;;;7.80;99.90;;;;;;5016962;28;20030;-88
2021/12/20 03:09:53;;;;;;;8.43;2.10;;;7.70;99.90;;;;;;5016555;28;20108;-88
2021/12/20 03:12:22;;;;;;;14.27;2.77;;;7.70;99.90;;;;;;5000488;28;20030;-88
2021/12/20 03:14:49;;;;;;;11.48;2.33;;;7.70;99.90;;;;;;5000083;28;20074;-88
2021/12/20 03:17:15;;;;;;;15.60;2.50;;;7.70;99.90;;;;;;5000145;28;20466;-88
2021/12/20 03:19:41;;;;;;;16.90;2.60;;;7.80;99.90;;;;;;5016137;28;20116;-88
2021/12/20 03:22:07;;;;;;;13.27;2.60;;;7.70;99.90;;;;;;5016156;28;20029;-88
2021/12/20 03:24:34;;;;;;;15.13;2.47;;;7.80;99.90;;;;;;5016329;28;20037;-88
2021/12/20 03:26:59;;;;;;;13.70;2.93;;;7.80;99.90;;;;;;5016133;28;20041;-88
2021/12/20 03:29:25;;;;;;;16.93;3.33;;;7.80;99.90;;;;;;4999753;28;20484;-87
2021/12/20 03:31:51;;;;;;;18.73;2.90;;;7.80;99.90;;;;;;4999786;28;20038;-88
2021/12/20 03:34:19;;;;;;;19.40;2.37;;;7.80;99.90;;;;;;5016131;28;20036;-88
2021/12/20 03:36:45;;;;;;;15.50;2.50;;;7.80;99.90;;;;;;4999525;28;20504;-88
2021/12/20 03:39:12;;;;;;;14.07;2.70;;;7.80;99.90;;;;;;4999647;28;20491;-88
2021/12/20 03:41:38;;;;;;;15.23;2.53;;;7.80;99.90;;;;;;5016132;28;20112;-88
2021/12/20 03:44:05;;;;;;;16.80;2.40;;;7.80;99.90;;;;;;4999924;28;20069;-88
2021/12/20 03:46:31;;;;;;;17.07;2.47;;;7.80;99.90;;;;;;5015999;28;20037;-88
2021/12/20 03:48:57;;;;;;;17.13;2.77;;;7.80;99.90;;;;;;5015727;28;20377;-88
2021/12/20 03:51:22;;;;;;;16.77;2.43;;;7.80;99.90;;;;;;4999636;28;20425;-87
2021/12/20 03:53:48;;;;;;;16.07;2.70;;;7.80;99.90;;;;;;4999441;28;20068;-88
2021/12/20 03:56:14;;;;;;;16.90;2.37;;;7.80;99.90;;;;;;5015616;28;20057;-88
2021/12/20 03:58:40;;;;;;;15.37;2.60;;;7.80;99.90;;;;;;5015826;28;20029;-88
2021/12/20 04:01:10;;;;;;;17.30;2.80;;;7.80;99.90;;;;;;4999060;28;20112;-88
2021/12/20 04:03:36;;;;;;;16.30;2.30;;;7.80;99.90;;;;;;5015695;28;20026;-88
2021/12/20 04:06:04;;;;;;;14.00;2.00;;;7.80;99.90;;;;;;4998871;28;20037;-88
2021/12/20 04:08:30;;;;;;;16.77;2.40;;;7.80;99.90;;;;;;5015482;28;20076;-88
2021/12/20 04:10:57;;;;;;;16.70;3.13;;;7.70;99.90;;;;;;4999065;28;20488;-87
2021/12/20 04:13:24;;;;;;;13.73;2.77;;;7.70;99.90;;;;;;4999014;28;20033;-88
2021/12/20 04:15:49;;;;;;;14.20;2.40;;;7.70;99.90;;;;;;4998956;28;20099;-88
2021/12/20 04:18:15;;;;;;;16.70;2.63;;;7.70;99.90;;;;;;4998762;28;20675;-88
2021/12/20 04:20:41;;;;;;;15.07;2.70;;;7.70;99.90;;;;;;4998919;28;20480;-88
2021/12/20 04:23:07;;;;;;;13.37;2.30;;;7.70;99.90;;;;;;4998836;28;20112;-88
2021/12/20 04:25:32;;;;;;;16.00;2.40;;;7.70;99.90;;;;;;5015140;28;20044;-88
2021/12/20 04:27:58;;;;;;;14.30;2.13;;;7.70;99.90;;;;;;4998503;28;20075;-88
2021/12/20 04:30:28;;;;;;;16.20;2.50;;;7.60;99.90;;;;;;4998963;28;20059;-88
2021/12/20 04:32:54;;;;;;;17.60;3.40;;;7.70;99.90;;;;;;4998684;28;20037;-88
2021/12/20 04:35:20;;;;;;;18.63;2.57;;;7.70;99.90;;;;;;4998698;28;20579;-88
2021/12/20 04:37:48;;;;;;;13.23;2.37;;;7.70;99.90;;;;;;4998431;28;20104;-88
2021/12/20 04:40:19;;;;;;;18.17;2.60;;;7.70;99.90;;;;;;5015066;28;20022;-88
2021/12/20 04:42:46;;;;;;;14.00;2.60;;;7.80;99.90;;;;;;4998734;28;20029;-88
2021/12/20 04:45:13;;;;;;;10.97;2.00;;;7.70;99.90;;;;;;5015091;28;20550;-87
2021/12/20 04:47:39;;;;;;;17.73;3.30;;;7.70;99.90;;;;;;5014888;28;20127;-87
2021/12/20 04:50:05;;;;;;;13.60;2.30;;;7.70;99.90;;;;;;5014672;28;20034;-88
2021/12/20 04:52:31;;;;;;;18.73;3.13;;;7.70;99.90;;;;;;4998589;28;20087;-87
2021/12/20 04:54:57;;;;;;;13.13;2.60;;;7.70;99.90;;;;;;4992243;28;20029;-88
2021/12/20 04:57:23;;;;;;;14.50;2.67;;;7.70;99.90;;;;;;5013472;28;20018;-88
2021/12/20 04:59:49;;;;;;;14.50;2.40;;;7.70;99.90;;;;;;4996929;28;20511;-87
2021/12/20 05:02:15;;;;;;;14.33;2.50;;;7.60;99.90;;;;;;4997209;28;20037;-89
2021/12/20 05:04:42;;;;;;;18.30;2.63;;;7.60;99.90;;;;;;5013758;28;20068;-89
2021/12/20 05:07:08;;;;;;;15.93;2.50;;;7.60;99.90;;;;;;4997402;28;20456;-88
2021/12/20 05:09:39;;;;;;;15.63;2.93;;;7.60;99.90;;;;;;5013188;28;20142;-88
2021/12/20 05:12:14;;;;;;;19.10;2.57;;;7.60;99.90;;;;;;4997941;28;20183;-85
2021/12/20 05:14:42;;;;;;;15.57;2.40;;;7.60;99.90;;;;;;5014524;28;20108;-86
2021/12/20 05:17:13;;;;;;;16.00;2.73;;;7.60;99.90;;;;;;4999332;28;20033;-87
2021/12/20 05:19:41;;;;;;;19.43;3.43;;;7.60;99.90;;;;;;4997426;28;20022;-87
2021/12/20 05:22:08;;;;;;;20.40;3.33;;;7.70;99.90;;;;;;5007543;28;20493;-88
2021/12/20 05:24:34;;;;;;;23.60;2.90;;;7.80;99.90;;;;;;4997636;28;20038;-87
2021/12/20 05:27:00;;;;;;;25.03;3.33;;;7.70;99.90;;;;;;4998478;28;20034;-87
2021/12/20 05:29:26;;;;;;;21.43;3.13;;;7.70;99.90;;;;;;4998364;28;20034;-87
2021/12/20 05:31:52;;;;;;;17.53;2.37;;;7.80;99.90;;;;;;4986938;28;20025;-87
2021/12/20 05:34:19;;;;;;;12.10;2.43;;;7.70;99.90;;;;;;5001640;28;20033;-88
2021/12/20 05:36:45;;;;;;;23.60;3.30;;;7.70;99.90;;;;;;5019385;28;20136;-87
2021/12/20 05:39:11;;;;;;;20.33;2.80;;;7.70;99.90;;;;;;5000347;28;20080;-87
2021/12/20 05:41:37;;;;;;;19.73;3.47;;;7.80;99.90;;;;;;5000804;28;20085;-87
2021/12/20 05:44:03;;;;;;;26.03;4.70;;;7.80;99.90;;;;;;5000978;28;20033;-87
2021/12/20 05:46:29;;;;;;;20.50;3.30;;;7.80;99.90;;;;;;5001167;28;20041;-88
2021/12/20 05:48:54;;;;;;;20.87;3.13;;;7.80;99.90;;;;;;5033101;28;20037;-87
2021/12/20 05:51:20;;;;;;;28.97;4.23;;;7.60;99.90;;;;;;5000649;28;20037;-88
2021/12/20 05:53:46;;;;;;;21.53;3.17;;;7.60;99.90;;;;;;5017086;28;20622;-87
2021/12/20 05:56:12;;;;;;;17.23;2.73;;;7.60;99.90;;;;;;5000936;28;20508;-87
2021/12/20 05:58:38;;;;;;;23.00;2.87;;;7.70;99.90;;;;;;5033220;28;20033;-87
2021/12/20 06:01:04;;;;;;;17.27;3.03;;;7.70;99.90;;;;;;5000767;28;20029;-87
2021/12/20 06:03:30;;;;;;;21.33;4.07;;;7.70;99.90;;;;;;5017921;28;20021;-89
2021/12/20 06:05:55;;;;;;;23.13;3.67;;;7.80;99.90;;;;;;5018425;28;20124;-91
2021/12/20 06:08:21;;;;;;;23.40;3.43;;;7.70;99.90;;;;;;5002723;28;20025;-87
2021/12/20 06:10:48;;;;;;;18.47;2.83;;;7.70;99.90;;;;;;5000198;28;20152;-88
2021/12/20 06:13:14;;;;;;;24.57;5.07;;;7.70;99.90;;;;;;5034968;28;20109;-88
2021/12/20 06:15:40;;;;;;;20.90;3.70;;;7.70;99.90;;;;;;5000026;28;20381;-88
2021/12/20 06:18:05;;;;;;;16.77;3.77;;;7.60;99.90;;;;;;4999773;28;20083;-87
2021/12/20 06:20:31;;;;;;;27.33;4.63;;;7.60;99.90;;;;;;5016693;28;20036;-88
2021/12/20 06:22:57;;;;;;;21.37;3.70;;;7.60;99.90;;;;;;5001522;28;20030;-89
2021/12/20 06:25:25;;;;;;;17.77;3.20;;;7.70;99.90;;;;;;5016672;28;20093;-89
2021/12/20 06:27:51;;;;;;;18.03;3.50;;;7.70;99.90;;;;;;4999938;28;20076;-90
2021/12/20 06:30:16;;;;;;;26.70;3.73;;;7.60;99.90;;;;;;4999851;28;20061;-90
2021/12/20 06:32:44;;;;;;;19.93;4.07;;;7.60;99.90;;;;;;4999329;28;20034;-89
2021/12/20 06:35:10;;;;;;;28.83;4.03;;;7.50;99.90;;;;;;5000021;28;20025;-90
2021/12/20 06:37:36;;;;;;;17.77;3.10;;;7.50;99.90;;;;;;5016362;28;20128;-88
2021/12/20 06:40:06;;;;;;;24.73;3.13;;;7.50;99.90;;;;;;4999435;28;20170;-90
2021/12/20 06:42:32;;;;;;;27.30;3.37;;;7.50;99.90;;;;;;5016551;28;20041;-89
2021/12/20 06:44:58;;;;;;;25.23;4.27;;;7.50;99.90;;;;;;5000206;28;20112;-89
2021/12/20 06:47:24;;;;;;;19.53;3.63;;;7.40;99.90;;;;;;5000385;28;20065;-89
2021/12/20 06:49:51;;;;;;;24.23;3.90;;;7.40;99.90;;;;;;4999619;28;20392;-90
2021/12/20 06:52:17;;;;;;;29.13;3.67;;;7.40;99.90;;;;;;4999994;28;20026;-90
2021/12/20 06:54:43;;;;;;;25.50;3.80;;;7.40;99.90;;;;;;5000070;28;20534;-90
2021/12/20 06:57:08;;;;;;;25.13;4.17;;;7.30;99.90;;;;;;5017572;28;20037;-90
2021/12/20 06:59:35;;;;;;;29.33;4.17;;;7.30;99.90;;;;;;5000082;28;20087;-88
2021/12/20 07:02:00;;;;;;;24.63;4.63;;;7.30;99.90;;;;;;5016628;28;20036;-90
2021/12/20 07:04:26;;;;;;;21.40;3.80;;;7.20;99.90;;;;;;5017183;28;20124;-90
2021/12/20 07:06:53;;;;;;;20.13;4.33;;;7.20;99.90;;;;;;5000688;28;20034;-89
2021/12/20 07:09:19;;;;;;;28.77;4.80;;;7.20;99.90;;;;;;5035235;28;20030;-91
2021/12/20 07:11:45;;;;;;;21.63;4.33;;;7.10;99.90;;;;;;5001945;28;20392;-91
2021/12/20 07:14:12;;;;;;;25.17;4.20;;;7.10;99.90;;;;;;5000418;28;20200;-91
2021/12/20 07:16:40;;;;;;;25.83;4.63;;;7.00;99.90;;;;;;5000496;28;20105;-89
2021/12/20 07:19:06;;;;;;;31.23;4.00;;;7.00;99.90;;;;;;4999958;28;20036;-86
2021/12/20 07:21:32;;;;;;;38.50;4.67;;;6.90;99.90;;;;;;4999391;28;20048;-87
2021/12/20 07:23:58;;;;;;;25.13;4.10;;;6.90;99.90;;;;;;4998550;28;20548;-87
2021/12/20 07:26:24;;;;;;;29.53;4.50;;;6.80;99.90;;;;;;5015834;28;20033;-88
2021/12/20 07:28:50;;;;;;;27.90;4.40;;;6.70;99.90;;;;;;5015219;28;20451;-87
2021/12/20 07:31:15;;;;;;;25.10;3.87;;;6.70;99.90;;;;;;4999208;28;20376;-88
2021/12/20 07:33:42;;;;;;;28.63;4.50;;;6.70;99.90;;;;;;4999365;28;20144;-88
2021/12/20 07:36:08;;;;;;;40.17;8.20;;;6.70;99.90;;;;;;4999220;28;20034;-88
2021/12/20 07:38:35;;;;;;;25.50;5.23;;;6.70;99.90;;;;;;4999823;28;20037;-88
2021/12/20 07:41:02;;;;;;;24.73;3.93;;;6.70;99.90;;;;;;4999969;28;20091;-89
2021/12/20 07:43:28;;;;;;;28.67;4.20;;;6.60;99.90;;;;;;5017168;28;20496;-88
2021/12/20 07:45:54;;;;;;;24.63;4.47;;;6.60;99.90;;;;;;5012430;28;26232;-88
2021/12/20 07:48:21;;;;;;;27.60;3.73;;;6.50;99.90;;;;;;4999763;28;20025;-89
2021/12/20 07:50:48;;;;;;;25.83;4.50;;;6.50;99.90;;;;;;4997895;28;20033;-88
2021/12/20 07:53:15;;;;;;;25.67;3.87;;;6.50;99.90;;;;;;4999535;28;20531;-89
2021/12/20 07:55:41;;;;;;;24.23;4.70;;;6.50;99.90;;;;;;5017034;28;20033;-84
2021/12/20 07:58:07;;;;;;;26.50;5.33;;;6.40;99.90;;;;;;5016500;28;20040;-85
2021/12/20 08:00:34;;;;;;;25.77;4.43;;;6.40;99.90;;;;;;5001015;28;20026;-85
2021/12/20 08:02:59;;;;;;;31.83;4.70;;;6.40;99.90;;;;;;5016439;28;20033;-85
2021/12/20 08:05:28;;;;;;;30.07;4.67;;;6.50;99.90;;;;;;5000593;28;20047;-85
2021/12/20 08:07:54;;;;;;;31.97;4.93;;;6.50;99.90;;;;;;4999745;28;20184;-85
2021/12/20 08:10:24;;;;;;;24.77;4.47;;;6.40;99.90;;;;;;5016684;28;20026;-86
2021/12/20 08:12:50;;;;;;;31.42;5.50;;;6.40;99.90;;;;;;4998950;28;20101;-84
2021/12/20 08:15:17;;;;;;;23.07;4.50;;;6.40;99.90;;;;;;4998762;28;20033;-84
2021/12/20 08:17:42;;;;;;;24.90;4.70;;;6.40;99.90;;;;;;4998106;28;20029;-84
2021/12/20 08:20:10;;;;;;;24.97;4.47;;;6.40;99.90;;;;;;5014482;28;20025;-87
2021/12/20 08:22:37;;;;;;;29.53;4.47;;;6.40;99.90;;;;;;5014769;28;20071;-85
2021/12/20 08:25:03;;;;;;;30.23;5.43;;;6.30;99.90;;;;;;5012622;28;20048;-85
2021/12/20 08:27:29;;;;;;;24.90;4.90;;;6.30;99.90;;;;;;5013184;28;20091;-89
2021/12/20 08:29:55;;;;;;;28.67;5.10;;;6.40;99.90;;;;;;5013774;28;20030;-86
2021/12/20 08:32:21;;;;;;;28.37;5.03;;;6.40;99.90;;;;;;5010388;28;20036;-86
2021/12/20 08:34:46;;;;;;;27.87;4.30;;;6.40;99.90;;;;;;5033682;28;20047;-85
2021/12/20 08:37:12;;;;;;;29.97;4.60;;;6.40;99.90;;;;;;5034124;28;20032;-86
2021/12/20 08:39:38;;;;;;;21.87;4.40;;;6.40;99.90;;;;;;5032944;28;20068;-83
2021/12/20 08:42:06;;;;;;;28.33;5.67;;;6.40;99.90;;;;;;5017606;28;20040;-84
2021/12/20 08:44:35;;;;;;;26.30;5.13;;;6.50;99.90;;;;;;5034020;28;20071;-84
2021/12/20 08:47:01;;;;;;;35.65;4.82;;;6.50;99.90;;;;;;5034480;28;20079;-85
2021/12/20 08:49:28;;;;;;;34.27;5.60;;;6.50;99.90;;;;;;5051769;28;20475;-85
2021/12/20 08:51:55;;;;;;;29.47;5.00;;;6.50;99.90;;;;;;5033693;28;20036;-85
2021/12/20 08:54:24;;;;;;;29.60;5.43;;;6.50;99.90;;;;;;5017414;28;20487;-84
2021/12/20 08:56:49;;;;;;;32.97;6.60;;;6.40;99.90;;;;;;5033584;28;20032;-85
2021/12/20 08:59:15;;;;;;;26.73;4.83;;;6.40;99.90;;;;;;5016056;28;20658;-84
2021/12/20 09:01:41;;;;;;;27.40;4.57;;;6.40;99.90;;;;;;5033317;28;20029;-85
2021/12/20 09:04:08;;;;;;;22.87;4.87;;;6.40;99.90;;;;;;5017761;28;20399;-85
2021/12/20 09:06:38;;;;;;;31.50;5.37;;;6.30;99.90;;;;;;5018787;28;20051;-85
2021/12/20 09:09:05;;;;;;;22.90;4.70;;;6.40;99.90;;;;;;5016089;28;20044;-85
2021/12/20 09:11:30;;;;;;;23.17;5.00;;;6.50;99.90;;;;;;5016434;28;20035;-86
2021/12/20 09:13:56;;;;;;;23.80;4.47;;;6.50;99.90;;;;;;5016049;28;20029;-85
2021/12/20 09:16:22;;;;;;;23.20;5.10;;;6.50;99.90;;;;;;5016238;28;20648;-86
2021/12/20 09:18:48;;;;;;;26.73;5.23;;;6.60;99.90;;;;;;5015741;28;20025;-86
2021/12/20 09:21:15;;;;;;;27.50;5.03;;;6.60;99.90;;;;;;5017069;28;20036;-86
2021/12/20 09:23:42;;;;;;;28.83;4.93;;;6.70;99.90;;;;;;5032692;28;20489;-85
2021/12/20 09:26:08;;;;;;;26.50;4.93;;;6.60;99.90;;;;;;5033195;28;20133;-86
2021/12/20 09:28:34;;;;;;;31.83;5.53;;;6.70;99.90;;;;;;5016470;28;20061;-86
2021/12/20 09:31:02;;;;;;;26.20;5.53;;;6.70;99.90;;;;;;5033025;28;20037;-86
2021/12/20 09:33:28;;;;;;;28.93;5.27;;;6.70;99.90;;;;;;5033339;28;20079;-87
2021/12/20 09:35:54;;;;;;;28.63;5.43;;;6.70;99.90;;;;;;5032968;28;20033;-86
2021/12/20 09:38:21;;;;;;;24.50;6.07;;;6.80;99.90;;;;;;5016468;28;20033;-87
2021/12/20 09:41:16;;;;;;;28.73;4.90;;;6.80;99.90;;;;;;5016477;28;20102;-86
2021/12/20 09:43:44;;;;;;;23.20;4.80;;;6.80;99.90;;;;;;5033675;28;20078;-86
2021/12/20 09:46:10;;;;;;;23.50;5.23;;;6.90;99.90;;;;;;5032963;28;20470;-87
2021/12/20 09:48:36;;;;;;;27.00;5.60;;;6.90;99.90;;;;;;5032371;28;20037;-86
2021/12/20 09:51:03;;;;;;;29.37;5.90;;;6.90;99.90;;;;;;5015928;28;20062;-85
2021/12/20 09:53:30;;;;;;;27.30;5.07;;;6.90;99.90;;;;;;5032300;28;20040;-86
2021/12/20 09:55:58;;;;;;;30.33;5.63;;;6.90;99.90;;;;;;5015289;28;20041;-88
2021/12/20 09:58:25;;;;;;;30.67;5.57;;;6.90;99.90;;;;;;5015894;28;20120;-86
2021/12/20 10:00:52;;;;;;;34.43;5.60;;;7.00;99.90;;;;;;5032151;28;20087;-86
2021/12/20 10:03:20;;;;;;;22.63;5.63;;;7.00;99.90;;;;;;5034428;28;20036;-86
2021/12/20 10:05:46;;;;;;;22.27;5.05;;;7.00;99.90;;;;;;5035948;28;20033;-87
2021/12/20 10:08:15;;;;;;;26.73;5.33;;;7.10;99.90;;;;;;5019249;28;20480;-87
2021/12/20 10:10:44;;;;;;;23.33;4.63;;;7.00;99.90;;;;;;5019060;28;20033;-86
2021/12/20 10:13:22;;;;;;;22.97;5.67;;;7.10;99.90;;;;;;5019726;28;20029;-87
2021/12/20 10:15:48;;;;;;;21.27;4.50;;;7.10;99.90;;;;;;5035955;28;20483;-87
2021/12/20 10:18:15;;;;;;;30.07;5.07;;;7.10;99.90;;;;;;5035719;28;20044;-86
2021/12/20 10:20:42;;;;;;;27.20;5.83;;;7.10;99.90;;;;;;5019765;28;20025;-87
2021/12/20 10:23:19;;;;;;;23.70;5.10;;;7.20;99.90;;;;;;5035927;28;20107;-87
2021/12/20 10:25:52;;;;;;;28.30;5.20;;;7.20;99.90;;;;;;5036002;28;20036;-87
2021/12/20 10:28:23;;;;;;;26.73;4.93;;;7.20;99.90;;;;;;5035886;28;20120;-86
2021/12/20 10:31:02;;;;;;;19.37;4.60;;;7.20;99.90;;;;;;5035644;28;20037;-87
2021/12/20 10:33:28;;;;;;;30.45;5.50;;;7.20;99.90;;;;;;5019327;28;20048;-87
2021/12/20 10:35:59;;;;;;;28.30;5.13;;;7.20;99.90;;;;;;5018770;28;20045;-87
2021/12/20 10:38:25;;;;;;;23.83;4.50;;;7.30;99.90;;;;;;5035451;28;20036;-87
2021/12/20 10:41:00;;;;;;;29.77;5.03;;;7.30;99.90;;;;;;5018422;28;20029;-86
2021/12/20 10:43:36;;;;;;;23.37;4.80;;;7.30;99.90;;;;;;5019070;28;20040;-87
2021/12/20 10:46:19;;;;;;;23.57;5.13;;;7.30;99.90;;;;;;5035918;28;20388;-87
2021/12/20 10:48:48;;;;;;;25.77;5.13;;;7.30;99.90;;;;;;5018546;28;20057;-87
2021/12/20 10:51:27;;;;;;;25.02;4.70;;;7.30;99.90;;;;;;5018895;28;20442;-89
2021/12/20 10:54:02;;;;;;;20.80;5.13;;;7.30;99.90;;;;;;5034860;28;20036;-87
2021/12/20 10:56:30;;;;;;;28.17;5.53;;;7.30;99.90;;;;;;5036969;28;20051;-87
2021/12/20 10:58:58;;;;;;;26.20;5.10;;;7.30;99.90;;;;;;5019666;28;20051;-88
2021/12/20 11:04:03;;;;;;;23.37;4.73;;;7.40;99.90;;;;;;5035564;28;20376;-89
2021/12/20 11:09:18;;;;;;;18.77;4.30;;;7.50;99.90;;;;;;5055023;28;20037;-86
2021/12/20 11:11:50;;;;;;;30.17;4.80;;;7.50;99.90;;;;;;5019195;28;20063;-87
2021/12/20 11:14:18;;;;;;;18.03;4.03;;;7.50;99.90;;;;;;5017643;28;20041;-87
2021/12/20 11:16:49;;;;;;;20.97;4.30;;;7.50;99.90;;;;;;5018905;28;20025;-86
2021/12/20 11:19:20;;;;;;;17.27;3.67;;;7.60;99.90;;;;;;5018094;28;20231;-87
2021/12/20 11:21:52;;;;;;;27.00;5.47;;;7.60;99.90;;;;;;5035066;28;20442;-87
2021/12/20 11:24:23;;;;;;;19.90;4.47;;;7.50;99.90;;;;;;5018250;28;20087;-87
2021/12/20 11:26:50;;;;;;;23.60;4.33;;;7.50;99.90;;;;;;5053341;28;20036;-87
2021/12/20 11:29:16;;;;;;;19.90;4.03;;;7.50;99.90;;;;;;5017988;28;20036;-87
2021/12/20 11:31:43;;;;;;;19.23;4.57;;;7.50;99.90;;;;;;5032621;28;20094;-87
2021/12/20 11:34:08;;;;;;;23.93;4.30;;;7.60;99.90;;;;;;5014268;28;20033;-87
2021/12/20 11:36:35;;;;;;;18.93;3.67;;;7.60;99.90;;;;;;4997953;28;20492;-87
2021/12/20 11:39:03;;;;;;;15.57;3.27;;;7.60;99.90;;;;;;5013103;28;20190;-86
2021/12/20 11:41:30;;;;;;;14.93;3.40;;;7.60;99.90;;;;;;4998858;28;20025;-87
2021/12/20 11:43:57;;;;;;;16.47;3.00;;;7.60;99.90;;;;;;5016263;28;20029;-87
2021/12/20 11:46:31;;;;;;;15.83;3.10;;;7.60;99.90;;;;;;4995648;28;20036;-86
2021/12/20 11:48:59;;;;;;;20.67;3.73;;;7.60;99.90;;;;;;5027390;28;20029;-86
2021/12/20 11:51:24;;;;;;;20.73;3.57;;;7.70;99.90;;;;;;4997425;28;20033;-87
2021/12/20 11:53:50;;;;;;;16.97;2.43;;;7.70;99.90;;;;;;5031653;28;20385;-86
2021/12/20 11:56:16;;;;;;;10.67;2.73;;;7.70;99.90;;;;;;5015006;28;20038;-87
2021/12/20 11:58:46;;;;;;;16.07;2.77;;;7.60;99.90;;;;;;5013827;28;20447;-86
2021/12/20 12:01:18;;;;;;;16.20;2.53;;;7.70;99.90;;;;;;4998541;28;20089;-88
2021/12/20 12:03:56;;;;;;;17.70;2.87;;;7.70;99.90;;;;;;4998371;28;20108;-87
2021/12/20 12:06:27;;;;;;;13.60;2.30;;;7.70;99.90;;;;;;4998071;28;20044;-87
2021/12/20 12:08:59;;;;;;;14.57;2.27;;;7.80;99.90;;;;;;4997343;28;20029;-87
2021/12/20 12:11:25;;;;;;;9.87;1.83;;;7.70;99.90;;;;;;4997871;28;20038;-87
2021/12/20 12:14:02;;;;;;;8.80;1.90;;;7.70;99.90;;;;;;5014513;28;20376;-86
2021/12/20 12:17:02;;;;;;;13.00;2.10;;;7.70;99.70;;;;;;5032174;28;20036;-86
2021/12/20 12:19:52;;;;;;;12.03;1.93;;;7.80;99.50;;;;;;5013714;28;20022;-87
2021/12/20 12:22:41;;;;;;;10.10;1.73;;;7.80;98.30;;;;;;5014209;28;20063;-87
2021/12/20 12:25:10;;;;;;;7.95;2.10;;;7.80;98.10;;;;;;5013337;28;20033;-86
2021/12/20 12:27:38;;;;;;;12.00;2.30;;;7.80;98.90;;;;;;5031628;28;20472;-87
2021/12/20 12:30:15;;;;;;;10.03;2.47;;;7.80;99.50;;;;;;4998307;28;20083;-87
2021/12/20 12:32:44;;;;;;;5.60;1.43;;;7.90;98.80;;;;;;5014011;28;20022;-86
2021/12/20 12:35:51;;;;;;;5.90;1.38;;;7.80;97.00;;;;;;5014155;28;20021;-86
2021/12/20 12:38:23;;;;;;;5.80;1.20;;;7.80;95.50;;;;;;4993273;28;20049;-86
2021/12/20 12:41:15;;;;;;;6.00;1.40;;;7.80;94.50;;;;;;5011547;28;20037;-86
2021/12/20 12:43:58;;;;;;;5.53;1.27;;;7.80;94.50;;;;;;5012062;28;20109;-86
2021/12/20 12:46:40;;;;;;;7.47;1.27;;;7.90;94.10;;;;;;5014812;28;20037;-86
2021/12/20 12:49:22;;;;;;;5.53;1.30;;;7.80;93.10;;;;;;4997739;28;20029;-87
2021/12/20 12:51:50;;;;;;;7.57;1.53;;;7.90;92.80;;;;;;5016503;28;20065;-86
2021/12/20 12:54:38;;;;;;;8.50;1.50;;;7.80;93.40;;;;;;4996769;28;20060;-87
2021/12/20 12:57:09;;;;;;;7.40;1.03;;;7.80;92.80;;;;;;4997683;28;20045;-87
2021/12/20 12:59:57;;;;;;;4.13;1.10;;;7.90;92.30;;;;;;5013177;28;20025;-87
2021/12/20 13:02:27;;;;;;;5.20;1.07;;;7.90;92.80;;;;;;5013506;28;20030;-87
2021/12/20 13:05:03;;;;;;;11.87;3.97;;;7.90;92.80;;;;;;5013799;28;20489;-87
2021/12/20 13:07:37;;;;;;;7.17;1.10;;;7.90;92.70;;;;;;5013738;28;20033;-86